Time;durP1;ratioP1;P1;durP2;ratioP2;P2;SDS_P1;SDS_P2;PMS_P1;PMS_P2;Temp;Humidity;BMP_temperature;BMP_pressure;BME280_temperature;BME280_humidity;BME280_pressure;Samples;Min_cycle;Max_cycle;Signal;HPM_P1;HPM_P2
2022/04/09 00:02:01;;;;;;;3.20;2.27;;;;;7.50;93993.00;;;;8366004;28;20315;-65
2022/04/09 00:06:05;;;;;;;3.43;2.20;;;;;7.30;93966.00;;;;8364958;28;20220;-65
2022/04/09 00:10:40;;;;;;;6.80;2.93;;;;;7.20;93986.00;;;;8365781;28;20727;-65
2022/04/09 00:14:43;;;;;;;2.30;2.07;;;;;7.00;93978.00;;;;8364998;28;20223;-65
2022/04/09 00:18:47;;;;;;;2.17;1.97;;;;;6.90;93989.00;;;;8364354;28;20229;-65
2022/04/09 00:23:24;;;;;;;2.73;2.20;;;;;6.80;94001.00;;;;8365476;28;20660;-66
2022/04/09 00:28:03;;;;;;;1.87;1.77;;;;;6.70;94021.00;;;;8364798;28;20300;-66
2022/04/09 00:32:07;;;;;;;1.70;1.60;;;;;6.60;94039.00;;;;8364434;28;20307;-66
2022/04/09 00:36:11;;;;;;;2.23;1.77;;;;;6.40;94067.00;;;;8365117;28;20224;-67
2022/04/09 00:40:17;;;;;;;1.53;1.43;;;;;6.10;94104.00;;;;8364490;28;20303;-68
2022/04/09 00:44:22;;;;;;;1.40;1.30;;;;;5.80;94152.00;;;;8364057;28;20713;-67
2022/04/09 00:48:25;;;;;;;0.70;0.70;;;;;5.30;94187.00;;;;8363997;28;20232;-67
2022/04/09 00:53:03;;;;;;;0.60;0.60;;;;;4.70;94184.00;;;;8362938;28;20232;-67
2022/04/09 00:57:07;;;;;;;0.50;0.50;;;;;4.30;94185.00;;;;8363692;28;20314;-68
2022/04/09 01:01:43;;;;;;;6.83;0.87;;;;;3.90;94182.00;;;;8363858;28;20317;-69
2022/04/09 01:05:48;;;;;;;0.50;0.50;;;;;3.60;94178.00;;;;8362663;28;20219;-68
2022/04/09 01:09:51;;;;;;;0.50;0.50;;;;;3.50;94190.00;;;;8363709;28;20226;-67
2022/04/09 01:14:28;;;;;;;0.80;0.80;;;;;3.40;94211.00;;;;8363177;28;20581;-66
2022/04/09 01:18:34;;;;;;;0.53;0.53;;;;;3.40;94234.00;;;;8363266;28;20601;-65
2022/04/09 01:23:09;;;;;;;0.60;0.60;;;;;3.30;94254.00;;;;8364000;28;20318;-65
2022/04/09 01:27:12;;;;;;;0.60;0.60;;;;;3.30;94281.00;;;;8362423;28;20300;-67
2022/04/09 01:31:16;;;;;;;0.70;0.70;;;;;3.40;94305.00;;;;8362548;28;20632;-67
2022/04/09 01:35:51;;;;;;;0.87;0.60;;;;;3.40;94336.00;;;;8362583;28;20267;-67
2022/04/09 01:39:55;;;;;;;0.50;0.50;;;;;3.40;94368.00;;;;8362510;28;20381;-67
2022/04/09 01:43:58;;;;;;;0.60;0.60;;;;;3.40;94356.00;;;;8362279;28;20302;-67
2022/04/09 01:48:01;;;;;;;1.20;0.80;;;;;3.50;94368.00;;;;8362712;28;20353;-67
2022/04/09 01:52:05;;;;;;;1.17;0.60;;;;;3.50;94415.00;;;;8361700;28;20231;-66
2022/04/09 01:56:42;;;;;;;0.53;0.53;;;;;3.50;94428.00;;;;8355151;28;20225;-66
2022/04/09 02:00:45;;;;;;;1.17;1.17;;;;;3.50;94443.00;;;;8362062;28;20214;-66
2022/04/09 02:04:48;;;;;;;1.60;1.50;;;;;3.50;94469.00;;;;8361393;28;20240;-65
2022/04/09 02:08:51;;;;;;;2.07;1.80;;;;;3.60;94488.00;;;;8361739;28;20616;-65
2022/04/09 02:13:26;;;;;;;3.67;1.87;;;;;3.60;94540.00;;;;8361608;28;20310;-65
2022/04/09 02:17:30;;;;;;;2.00;1.73;;;;;3.60;94556.00;;;;8361680;28;20214;-64
2022/04/09 02:22:09;;;;;;;4.80;2.53;;;;;3.60;94556.00;;;;8362014;28;20295;-64
2022/04/09 02:26:13;;;;;;;3.77;2.40;;;;;3.70;94580.00;;;;8361479;28;20301;-64
2022/04/09 02:30:17;;;;;;;6.80;2.57;;;;;3.70;94593.00;;;;8360776;28;20306;-65
2022/04/09 02:34:53;;;;;;;3.90;2.57;;;;;3.70;94644.00;;;;8361269;28;20623;-64
2022/04/09 02:38:56;;;;;;;4.67;2.63;;;;;3.70;94639.00;;;;8360804;28;20220;-64
2022/04/09 02:43:33;;;;;;;4.97;2.10;;;;;3.70;94668.00;;;;8360933;28;20309;-64
2022/04/09 02:47:37;;;;;;;3.43;2.10;;;;;3.70;94693.00;;;;8353598;28;20223;-63
2022/04/09 02:52:11;;;;;;;3.17;2.07;;;;;3.70;94707.00;;;;8360706;28;20303;-64
2022/04/09 02:56:14;;;;;;;7.93;2.23;;;;;3.70;94722.00;;;;8360785;28;20218;-63
2022/04/09 03:00:18;;;;;;;2.60;2.20;;;;;3.70;94729.00;;;;8361105;28;20662;-64
2022/04/09 03:04:23;;;;;;;3.90;2.70;;;;;3.80;94736.00;;;;8359069;22;20810;-64
2022/04/09 03:08:26;;;;;;;3.93;2.67;;;;;3.80;94762.00;;;;8342897;28;20239;-66
2022/04/09 03:12:29;;;;;;;2.70;1.97;;;;;3.80;94789.00;;;;8352727;28;20249;-65
2022/04/09 03:16:32;;;;;;;5.70;3.00;;;;;3.80;94807.00;;;;8356784;28;20275;-65
2022/04/09 03:20:37;;;;;;;4.77;2.67;;;;;3.80;94826.00;;;;8361874;28;20229;-64
2022/04/09 03:24:40;;;;;;;2.87;2.23;;;;;3.80;94838.00;;;;8349974;28;20277;-64
2022/04/09 03:28:43;;;;;;;5.03;3.33;;;;;3.80;94849.00;;;;8355298;28;20314;-64
2022/04/09 03:32:47;;;;;;;3.73;2.63;;;;;3.80;94852.00;;;;8352190;28;20247;-64
2022/04/09 03:36:51;;;;;;;2.73;2.00;;;;;3.70;94876.00;;;;8353183;28;20222;-64
2022/04/09 03:40:54;;;;;;;3.60;2.73;;;;;3.70;94889.00;;;;8351982;28;20231;-63
2022/04/09 03:44:57;;;;;;;3.13;2.60;;;;;3.70;94908.00;;;;8352131;28;20234;-64
2022/04/09 03:49:01;;;;;;;4.37;2.57;;;;;3.60;94933.00;;;;8355762;28;20940;-64
2022/04/09 03:53:05;;;;;;;5.47;2.83;;;;;3.60;94945.00;;;;8351149;28;20264;-65
2022/04/09 03:57:09;;;;;;;2.60;2.30;;;;;3.50;94973.00;;;;8357115;28;20796;-64
2022/04/09 04:01:13;;;;;;;6.43;3.43;;;;;3.50;94980.00;;;;8355844;28;20309;-64
2022/04/09 04:05:16;;;;;;;6.80;4.20;;;;;3.50;94988.00;;;;8351439;28;20227;-63
2022/04/09 04:09:21;;;;;;;13.70;5.40;;;;;3.50;94998.00;;;;8351882;28;20233;-64
2022/04/09 04:13:24;;;;;;;13.00;6.10;;;;;3.50;95010.00;;;;8351538;28;20248;-65
2022/04/09 04:17:27;;;;;;;13.90;6.03;;;;;3.50;95014.00;;;;8351156;28;20275;-64
2022/04/09 04:21:31;;;;;;;8.23;4.10;;;;;3.40;95025.00;;;;8351313;28;20224;-65
2022/04/09 04:25:37;;;;;;;15.93;6.97;;;;;3.40;95061.00;;;;8350545;28;20293;-65
2022/04/09 04:29:40;;;;;;;12.70;5.17;;;;;3.50;95043.00;;;;8352559;28;21037;-65
2022/04/09 04:33:43;;;;;;;14.30;5.70;;;;;3.50;95064.00;;;;8349860;28;20589;-65
2022/04/09 04:37:47;;;;;;;18.17;7.30;;;;;3.50;95070.00;;;;8351108;28;20254;-65
2022/04/09 04:41:52;;;;;;;19.60;7.77;;;;;3.60;95085.00;;;;8351509;28;20320;-66
2022/04/09 04:45:56;;;;;;;19.87;7.23;;;;;3.60;95095.00;;;;8350927;28;21122;-65
2022/04/09 04:50:04;;;;;;;22.77;7.80;;;;;3.60;95101.00;;;;8350999;28;20230;-64
2022/04/09 04:54:07;;;;;;;24.50;7.90;;;;;3.60;95117.00;;;;8347365;28;20268;-64
2022/04/09 04:58:11;;;;;;;40.07;9.43;;;;;3.60;95143.00;;;;8351089;28;20569;-63
2022/04/09 05:02:15;;;;;;;30.67;9.47;;;;;3.70;95152.00;;;;8349623;28;20350;-64
2022/04/09 05:06:18;;;;;;;22.70;8.17;;;;;3.70;95160.00;;;;8341758;28;20310;-64
2022/04/09 05:10:23;;;;;;;41.47;11.63;;;;;3.70;95174.00;;;;8348204;28;20687;-65
2022/04/09 05:14:27;;;;;;;22.90;8.27;;;;;3.70;95179.00;;;;8358166;28;20228;-65
2022/04/09 05:18:32;;;;;;;30.33;9.37;;;;;3.80;95182.00;;;;8347512;28;20313;-64
2022/04/09 05:22:36;;;;;;;33.03;10.33;;;;;3.80;95193.00;;;;8348206;28;20302;-64
2022/04/09 05:26:39;;;;;;;23.80;9.10;;;;;3.80;95203.00;;;;8339165;28;20216;-64
2022/04/09 05:30:45;;;;;;;20.63;8.57;;;;;3.80;95217.00;;;;8341544;28;20968;-65
2022/04/09 05:34:49;;;;;;;29.33;8.83;;;;;3.80;95223.00;;;;8349910;28;20278;-65
2022/04/09 05:38:52;;;;;;;31.30;10.93;;;;;3.80;95247.00;;;;8345586;28;20216;-65
2022/04/09 05:42:56;;;;;;;35.80;10.67;;;;;3.80;95248.00;;;;8344374;28;20608;-63
2022/04/09 05:47:00;;;;;;;27.37;9.73;;;;;3.80;95268.00;;;;8345429;28;20321;-64
2022/04/09 05:51:04;;;;;;;32.13;9.40;;;;;3.80;95290.00;;;;8348696;28;20232;-64
2022/04/09 05:55:09;;;;;;;20.83;8.07;;;;;3.80;95293.00;;;;8345378;28;20331;-64
2022/04/09 05:59:12;;;;;;;28.13;10.40;;;;;3.90;95312.00;;;;8342025;28;20311;-64
2022/04/09 06:03:24;;;;;;;26.90;9.97;;;;;4.00;95319.00;;;;8345237;28;20234;-63
2022/04/09 06:07:27;;;;;;;34.33;10.43;;;;;4.00;95336.00;;;;8346922;28;20393;-64
2022/04/09 06:11:31;;;;;;;30.53;9.60;;;;;4.00;95333.00;;;;8344029;28;25265;-64
2022/04/09 06:15:34;;;;;;;31.67;9.43;;;;;4.10;95339.00;;;;8344787;28;20227;-65
2022/04/09 06:19:39;;;;;;;22.57;8.73;;;;;4.20;95348.00;;;;8345726;28;20316;-64
2022/04/09 06:23:42;;;;;;;16.57;7.43;;;;;4.20;95366.00;;;;8345205;28;20247;-65
2022/04/09 06:27:45;;;;;;;16.23;7.17;;;;;4.30;95369.00;;;;8343328;28;20238;-65
2022/04/09 06:31:48;;;;;;;18.67;6.57;;;;;4.30;95384.00;;;;8340420;28;20239;-64
2022/04/09 06:35:53;;;;;;;20.07;7.60;;;;;4.50;95390.00;;;;8346886;28;20790;-65
2022/04/09 06:39:57;;;;;;;30.17;8.90;;;;;4.60;95385.00;;;;8344508;28;20231;-65
2022/04/09 06:44:00;;;;;;;18.80;6.30;;;;;4.70;95401.00;;;;8345734;28;20243;-64
2022/04/09 06:48:04;;;;;;;24.53;9.57;;;;;4.80;95408.00;;;;8345363;28;20335;-63
2022/04/09 06:52:08;;;;;;;21.03;7.23;;;;;5.10;95407.00;;;;8352482;28;20232;-63
2022/04/09 06:56:12;;;;;;;18.80;7.40;;;;;5.10;95423.00;;;;8352659;28;20238;-63
2022/04/09 07:00:16;;;;;;;28.37;10.63;;;;;5.00;95435.00;;;;8351735;28;20776;-64
2022/04/09 07:04:19;;;;;;;27.63;9.50;;;;;5.20;95439.00;;;;8351285;28;20270;-64
2022/04/09 07:08:23;;;;;;;25.17;9.17;;;;;5.40;95439.00;;;;8351653;28;20834;-64
2022/04/09 07:12:26;;;;;;;22.53;9.50;;;;;5.70;95444.00;;;;8354871;28;20314;-64
2022/04/09 07:16:30;;;;;;;26.70;11.73;;;;;5.80;95447.00;;;;8350541;28;20850;-65
2022/04/09 07:20:35;;;;;;;18.60;7.77;;;;;6.10;95461.00;;;;8350118;28;20711;-65
2022/04/09 07:24:40;;;;;;;21.47;9.27;;;;;6.20;95450.00;;;;8350114;28;20232;-65
2022/04/09 07:28:44;;;;;;;13.47;7.07;;;;;6.30;95477.00;;;;8356131;28;20228;-65
2022/04/09 07:32:48;;;;;;;21.67;9.47;;;;;6.30;95483.00;;;;8351208;28;20232;-64
2022/04/09 07:36:51;;;;;;;19.77;7.57;;;;;6.50;95479.00;;;;8350179;28;20955;-65
2022/04/09 07:40:56;;;;;;;19.43;7.63;;;;;6.60;95493.00;;;;8355185;28;20224;-65
2022/04/09 07:44:59;;;;;;;23.37;8.90;;;;;6.70;95478.00;;;;8351579;28;20356;-65
2022/04/09 07:49:04;;;;;;;21.80;8.20;;;;;6.80;95484.00;;;;8344632;28;20662;-65
2022/04/09 07:53:08;;;;;;;18.97;8.43;;;;;7.20;95504.00;;;;8349763;28;20228;-65
2022/04/09 07:57:12;;;;;;;19.37;8.10;;;;;7.00;95507.00;;;;8352147;28;20231;-65
2022/04/09 08:01:16;;;;;;;25.53;10.47;;;;;6.80;95511.00;;;;8352860;28;20258;-65
2022/04/09 08:05:19;;;;;;;24.77;9.70;;;;;7.10;95521.00;;;;8353782;28;20224;-65
2022/04/09 08:09:22;;;;;;;28.63;11.17;;;;;7.50;95528.00;;;;8349735;28;20220;-66
2022/04/09 08:13:27;;;;;;;28.90;12.17;;;;;8.10;95534.00;;;;8351239;28;20224;-65
2022/04/09 08:17:30;;;;;;;24.17;10.80;;;;;8.20;95535.00;;;;8349898;28;20224;-65
2022/04/09 08:21:36;;;;;;;19.93;7.83;;;;;7.80;95530.00;;;;8348990;28;20309;-65
2022/04/09 08:25:39;;;;;;;27.17;11.40;;;;;8.50;95552.00;;;;8326933;28;20230;-66
2022/04/09 08:29:44;;;;;;;21.67;9.60;;;;;8.70;95540.00;;;;8360534;28;20266;-65
2022/04/09 08:33:47;;;;;;;21.10;9.20;;;;;8.40;95543.00;;;;8360032;28;20319;-65
2022/04/09 08:37:54;;;;;;;15.63;7.83;;;;;8.70;95550.00;;;;8361371;28;20246;-65
2022/04/09 08:41:58;;;;;;;21.63;11.00;;;;;8.70;95567.00;;;;8363978;28;20224;-65
2022/04/09 08:46:03;;;;;;;24.50;9.80;;;;;8.50;95570.00;;;;8355733;28;20708;-66
2022/04/09 08:50:10;;;;;;;25.90;10.20;;;;;8.30;95574.00;;;;8359471;28;20562;-65
2022/04/09 08:54:14;;;;;;;20.37;9.30;;;;;8.50;95580.00;;;;8355628;28;20219;-66
2022/04/09 08:58:18;;;;;;;24.87;9.43;;;;;8.70;95576.00;;;;8360565;28;20231;-66
2022/04/09 09:02:23;;;;;;;20.03;10.10;;;;;8.70;95597.00;;;;8364438;28;20221;-66
2022/04/09 09:06:29;;;;;;;19.40;8.87;;;;;8.60;95595.00;;;;8358732;28;20682;-64
2022/04/09 09:10:32;;;;;;;32.73;10.70;;;;;8.20;95597.00;;;;8357336;28;20235;-65
2022/04/09 09:14:36;;;;;;;23.67;8.47;;;;;7.90;95603.00;;;;8356301;28;20220;-66
2022/04/09 09:18:40;;;;;;;17.00;7.73;;;;;8.00;95609.00;;;;8363764;28;20410;-66
2022/04/09 09:22:44;;;;;;;16.07;7.03;;;;;7.80;95599.00;;;;8358778;28;20220;-66
2022/04/09 09:26:57;;;;;;;16.47;7.33;;;;;7.50;95608.00;;;;8361702;28;20240;-66
2022/04/09 09:31:01;;;;;;;20.37;7.50;;;;;7.40;95614.00;;;;8360000;28;20242;-66
2022/04/09 09:35:09;;;;;;;9.37;5.40;;;;;7.60;95615.00;;;;8356648;28;20625;-67
2022/04/09 09:39:14;;;;;;;19.80;7.30;;;;;7.50;95609.00;;;;8348956;28;20307;-69
2022/04/09 09:43:18;;;;;;;20.07;6.83;;;;;7.30;95636.00;;;;8345334;28;20356;-68
2022/04/09 09:47:21;;;;;;;15.47;6.53;;;;;7.30;95629.00;;;;8346695;28;20240;-68
2022/04/09 09:51:27;;;;;;;15.03;6.33;;;;;7.70;95635.00;;;;8346715;28;20286;-68
2022/04/09 09:55:41;;;;;;;12.50;5.57;;;;;8.30;95632.00;;;;8346906;28;20243;-66
2022/04/09 09:59:45;;;;;;;15.47;6.77;;;;;8.50;95639.00;;;;8347263;28;20677;-67
2022/04/09 10:03:49;;;;;;;22.90;6.40;;;;;8.40;95653.00;;;;8353777;28;20224;-68
2022/04/09 10:07:56;;;;;;;12.97;5.30;;;;;8.50;95659.00;;;;8346316;28;20228;-69
2022/04/09 10:12:00;;;;;;;17.07;6.00;;;;;8.50;95658.00;;;;8345402;28;20224;-70
2022/04/09 10:16:05;;;;;;;15.93;5.10;;;;;8.40;95664.00;;;;8347849;28;20311;-69
2022/04/09 10:20:10;;;;;;;11.40;4.97;;;;;8.50;95654.00;;;;8337786;28;20279;-69
2022/04/09 10:24:18;;;;;;;10.07;5.10;;;;;8.50;95656.00;;;;8343846;28;20220;-69
2022/04/09 10:28:32;;;;;;;11.43;4.50;;;;;8.60;95665.00;;;;8347263;28;20252;-69
2022/04/09 10:32:43;;;;;;;10.60;5.20;;;;;8.70;95669.00;;;;8346221;28;20983;-70
2022/04/09 10:37:06;;;;;;;13.03;4.87;;;;;8.60;95679.00;;;;8340820;28;20232;-71
2022/04/09 10:41:30;;;;;;;10.93;5.30;;;;;8.40;95695.00;;;;8342014;28;20229;-70
2022/04/09 10:45:33;;;;;;;14.07;4.70;;;;;8.80;95678.00;;;;8341069;28;20220;-69
2022/04/09 10:49:36;;;;;;;10.23;4.00;;;;;9.10;95672.00;;;;8342872;28;20224;-68
2022/04/09 10:53:47;;;;;;;5.07;2.90;;;;;9.30;95689.00;;;;8348303;28;20407;-68
2022/04/09 10:58:01;;;;;;;8.10;3.10;;;;;9.50;95697.00;;;;8345003;28;20236;-70
2022/04/09 11:02:04;;;;;;;7.80;3.30;;;;;9.60;95702.00;;;;8342209;28;20244;-70
2022/04/09 11:06:40;;;;;;;5.13;2.93;;;;;9.50;95698.00;;;;8338096;28;20259;-69
2022/04/09 11:10:44;;;;;;;6.57;3.10;;;;;9.40;95683.00;;;;8343662;28;20559;-70
2022/04/09 11:14:51;;;;;;;3.70;3.00;;;;;9.60;95679.00;;;;8342246;28;20236;-69
2022/04/09 11:18:55;;;;;;;4.83;3.67;;;;;9.40;95699.00;;;;8349819;28;20300;-69
2022/04/09 11:23:09;;;;;;;8.10;4.18;;;;;9.10;95688.00;;;;8345303;28;20362;-69
2022/04/09 11:27:12;;;;;;;4.10;2.97;;;;;9.70;95692.00;;;;8342792;28;20241;-69
2022/04/09 11:31:22;;;;;;;4.53;2.27;;;;;10.50;95699.00;;;;8345491;28;20788;-68
2022/04/09 11:35:25;;;;;;;4.70;2.60;;;;;10.60;95705.00;;;;8348775;28;20251;-69
2022/04/09 11:39:28;;;;;;;4.00;2.20;;;;;10.30;95705.00;;;;8350077;28;20229;-69
2022/04/09 11:43:32;;;;;;;5.53;2.50;;;;;10.20;95699.00;;;;8352450;28;20243;-69
2022/04/09 11:47:36;;;;;;;6.25;2.15;;;;;10.50;95708.00;;;;8344383;28;20243;-70
2022/04/09 11:51:40;;;;;;;4.17;2.27;;;;;10.50;95716.00;;;;8350163;28;20228;-70
2022/04/09 11:55:44;;;;;;;4.93;3.55;;;;;10.70;95716.00;;;;8348773;28;20236;-70
2022/04/09 11:59:51;;;;;;;3.38;2.38;;;;;11.00;95728.00;;;;8346984;28;20704;-73
2022/04/09 12:03:56;;;;;;;2.38;2.13;;;;;11.20;95710.00;;;;8351063;28;20228;-72
2022/04/09 12:08:00;;;;;;;6.82;2.35;;;;;11.20;95716.00;;;;8350059;28;20229;-73
2022/04/09 12:12:03;;;;;;;7.10;2.50;;;;;10.90;95720.00;;;;8348435;28;20233;-72
2022/04/09 12:16:16;;;;;;;7.82;2.83;;;;;10.70;95716.00;;;;8345946;28;20228;-72
2022/04/09 12:20:35;;;;;;;3.15;2.03;;;;;10.70;95729.00;;;;8349783;28;20220;-69
2022/04/09 12:24:50;;;;;;;3.80;2.10;;;;;10.60;95718.00;;;;8348560;28;20225;-71
2022/04/09 12:29:08;;;;;;;3.97;2.50;;;;;10.40;95725.00;;;;8341099;28;20225;-71
2022/04/09 12:33:13;;;;;;;4.55;2.28;;;;;10.40;95737.00;;;;8344361;28;20230;-71
2022/04/09 12:37:18;;;;;;;3.70;2.58;;;;;10.20;95732.00;;;;8342088;28;20286;-71
2022/04/09 12:41:21;;;;;;;3.33;2.40;;;;;9.80;95716.00;;;;8348099;28;20321;-72
2022/04/09 12:45:25;;;;;;;8.57;2.58;;;;;9.60;95727.00;;;;8348350;28;20237;-72
2022/04/09 12:49:29;;;;;;;4.63;2.00;;;;;9.40;95700.00;;;;8349210;28;20224;-71
2022/04/09 12:53:34;;;;;;;6.20;2.57;;;;;9.70;95710.00;;;;8348188;28;20229;-72
2022/04/09 12:57:37;;;;;;;5.70;2.10;;;;;10.10;95705.00;;;;8351043;28;20678;-72
2022/04/09 13:01:40;;;;;;;3.57;1.60;;;;;10.50;95698.00;;;;8345599;28;20563;-72
2022/04/09 13:05:43;;;;;;;1.80;1.67;;;;;11.00;95690.00;;;;8347257;28;20236;-72
2022/04/09 13:09:49;;;;;;;1.90;1.80;;;;;11.10;95686.00;;;;8348371;28;20232;-72
2022/04/09 13:13:52;;;;;;;6.30;2.30;;;;;11.10;95696.00;;;;8355463;28;20220;-72
2022/04/09 13:17:55;;;;;;;4.83;2.33;;;;;11.10;95692.00;;;;8348786;28;20218;-71
2022/04/09 13:21:58;;;;;;;12.65;3.25;;;;;11.10;95683.00;;;;8350746;28;20266;-71
2022/04/09 13:26:02;;;;;;;1.63;1.52;;;;;11.40;95667.00;;;;8350703;28;20889;-72
2022/04/09 13:30:06;;;;;;;9.05;2.00;;;;;11.40;95690.00;;;;8354141;28;20307;-72
2022/04/09 13:34:14;;;;;;;3.85;1.98;;;;;11.50;95689.00;;;;8348600;28;20315;-72
2022/04/09 13:38:17;;;;;;;13.85;2.10;;;;;11.50;95684.00;;;;8348211;28;20923;-72
2022/04/09 13:42:22;;;;;;;4.95;2.17;;;;;11.50;95669.00;;;;8349080;28;20270;-71
2022/04/09 13:46:25;;;;;;;6.18;2.15;;;;;11.80;95666.00;;;;8343332;28;20250;-72
2022/04/09 13:50:30;;;;;;;3.47;1.80;;;;;12.00;95669.00;;;;8347064;28;20255;-72
2022/04/09 13:54:33;;;;;;;4.55;2.20;;;;;11.50;95679.00;;;;8337690;28;20224;-70
2022/04/09 13:58:37;;;;;;;4.18;2.30;;;;;11.10;95677.00;;;;8345515;28;20315;-72
2022/04/09 14:02:41;;;;;;;5.63;2.83;;;;;10.80;95692.00;;;;8341762;28;20252;-71
2022/04/09 14:06:44;;;;;;;4.28;2.03;;;;;11.30;95672.00;;;;8332224;28;20770;-74
2022/04/09 14:10:48;;;;;;;7.07;2.45;;;;;12.00;95677.00;;;;8350917;28;20235;-71
2022/04/09 14:14:53;;;;;;;5.10;2.40;;;;;12.30;95685.00;;;;8349083;28;20818;-72
2022/04/09 14:18:56;;;;;;;5.40;2.05;;;;;11.80;95676.00;;;;8349364;28;20239;-73
2022/04/09 14:22:59;;;;;;;8.43;3.67;;;;;11.30;95684.00;;;;8349326;28;20943;-73
2022/04/09 14:27:06;;;;;;;93.05;79.15;;;;;11.90;95674.00;;;;8352689;28;20228;-75
2022/04/09 14:31:11;;;;;;;4.90;2.08;;;;;12.30;95671.00;;;;8343967;28;20251;-75
2022/04/09 14:35:16;;;;;;;3.30;1.88;;;;;12.20;95677.00;;;;8339105;28;20258;-75
2022/04/09 14:39:20;;;;;;;6.00;1.92;;;;;12.30;95673.00;;;;8341342;28;20228;-75
2022/04/09 14:43:23;;;;;;;5.03;2.00;;;;;12.30;95679.00;;;;8343605;28;20231;-75
2022/04/09 14:47:30;;;;;;;4.85;2.22;;;;;12.10;95681.00;;;;8342483;28;20247;-74
2022/04/09 14:51:33;;;;;;;5.82;2.55;;;;;12.20;95664.00;;;;8350183;28;20229;-74
2022/04/09 14:55:36;;;;;;;3.58;2.42;;;;;12.80;95689.00;;;;8342193;28;20949;-74
2022/04/09 14:59:40;;;;;;;5.05;1.98;;;;;12.90;95693.00;;;;8346105;28;20231;-74
2022/04/09 15:03:44;;;;;;;5.95;2.03;;;;;13.00;95685.00;;;;8341495;28;20692;-74
2022/04/09 15:07:48;;;;;;;7.60;2.08;;;;;12.60;95694.00;;;;8351688;28;21016;-74
2022/04/09 15:11:51;;;;;;;5.43;3.17;;;;;12.10;95694.00;;;;8358768;28;20247;-74
2022/04/09 15:15:55;;;;;;;3.60;1.90;;;;;11.70;95700.00;;;;8366518;28;20224;-73
2022/04/09 15:20:00;;;;;;;5.63;2.45;;;;;11.30;95703.00;;;;8355695;28;20770;-78
2022/04/09 15:24:04;;;;;;;4.70;1.80;;;;;11.00;95707.00;;;;8357255;28;20258;-72
2022/04/09 15:28:07;;;;;;;2.47;1.75;;;;;10.80;95708.00;;;;8359091;28;22266;-73
2022/04/09 15:32:12;;;;;;;5.63;2.05;;;;;10.60;95720.00;;;;8359429;28;20261;-73
2022/04/09 15:36:17;;;;;;;5.95;2.22;;;;;10.50;95715.00;;;;8361090;28;20306;-73
2022/04/09 15:40:20;;;;;;;5.05;2.00;;;;;10.50;95734.00;;;;8363092;28;20226;-81
2022/04/09 15:44:24;;;;;;;4.80;1.98;;;;;10.60;95729.00;;;;8357571;28;20864;-74
2022/04/09 15:48:27;;;;;;;3.53;1.95;;;;;10.60;95724.00;;;;8354606;28;20231;-74
2022/04/09 15:52:33;;;;;;;3.47;1.92;;;;;10.80;95733.00;;;;8361420;28;20308;-73
2022/04/09 15:56:36;;;;;;;3.40;2.10;;;;;10.70;95742.00;;;;8360244;28;20240;-74
2022/04/09 16:00:39;;;;;;;7.88;2.10;;;;;10.60;95740.00;;;;8347553;28;20565;-75
2022/04/09 16:04:42;;;;;;;7.88;2.22;;;;;10.40;95742.00;;;;8344041;28;20236;-75
2022/04/09 16:08:50;;;;;;;3.25;1.80;;;;;10.20;95750.00;;;;8349486;28;20283;-74
2022/04/09 16:12:55;;;;;;;4.45;2.17;;;;;10.00;95802.00;;;;8348787;28;20238;-74
2022/04/09 16:16:58;;;;;;;6.47;2.20;;;;;8.90;95805.00;;;;8350303;28;20657;-70
2022/04/09 16:21:03;;;;;;;2.28;1.70;;;;;8.20;95797.00;;;;8351387;28;20244;-72
2022/04/09 16:25:08;;;;;;;2.57;2.03;;;;;8.20;95778.00;;;;8342662;28;20233;-72
2022/04/09 16:29:12;;;;;;;2.67;1.93;;;;;8.60;95779.00;;;;8350208;28;20235;-72
2022/04/09 16:33:15;;;;;;;9.30;2.00;;;;;9.20;95775.00;;;;8346314;28;20227;-71
2022/04/09 16:37:18;;;;;;;2.88;1.90;;;;;9.30;95786.00;;;;8350959;28;20309;-73
2022/04/09 16:41:23;;;;;;;3.97;1.90;;;;;9.20;95790.00;;;;8361630;28;20231;-72
2022/04/09 16:45:26;;;;;;;5.17;2.20;;;;;9.30;95791.00;;;;8361756;28;20216;-71
2022/04/09 16:49:30;;;;;;;7.30;2.00;;;;;9.70;95805.00;;;;8353068;28;20336;-67
2022/04/09 16:53:33;;;;;;;3.00;1.80;;;;;10.30;95816.00;;;;8347880;28;20573;-71
2022/04/09 16:57:39;;;;;;;3.78;2.20;;;;;10.20;95814.00;;;;8348964;28;20579;-70
2022/04/09 17:01:42;;;;;;;3.40;2.40;;;;;9.70;95816.00;;;;8350777;28;20235;-70
2022/04/09 17:05:46;;;;;;;7.03;2.63;;;;;9.20;95821.00;;;;8342915;28;20251;-71
2022/04/09 17:09:49;;;;;;;4.97;2.47;;;;;8.70;95818.00;;;;8347725;28;20271;-71
2022/04/09 17:13:54;;;;;;;5.60;2.07;;;;;8.50;95826.00;;;;8349816;28;20231;-70
2022/04/09 17:17:57;;;;;;;6.93;2.28;;;;;8.20;95834.00;;;;8347287;28;20242;-71
2022/04/09 17:22:00;;;;;;;5.70;2.10;;;;;8.10;95832.00;;;;8350412;28;20325;-73
2022/04/09 17:26:04;;;;;;;3.83;1.83;;;;;7.90;95845.00;;;;8347485;28;20240;-71
2022/04/09 17:30:10;;;;;;;5.20;2.10;;;;;7.80;95846.00;;;;8348955;28;20830;-73
2022/04/09 17:34:14;;;;;;;2.00;1.80;;;;;7.60;95844.00;;;;8350432;28;20229;-73
2022/04/09 17:38:17;;;;;;;2.20;1.70;;;;;7.50;95849.00;;;;8347422;28;20694;-72
2022/04/09 17:42:21;;;;;;;1.97;1.83;;;;;7.30;95848.00;;;;8341906;28;20319;-73
2022/04/09 17:46:26;;;;;;;2.77;1.87;;;;;7.30;95852.00;;;;8348794;28;20216;-71
2022/04/09 17:50:29;;;;;;;1.97;1.83;;;;;7.20;95865.00;;;;8344632;28;20653;-71
2022/04/09 17:54:33;;;;;;;2.67;1.90;;;;;7.00;95862.00;;;;8346605;28;20686;-71
2022/04/09 17:58:38;;;;;;;3.37;1.90;;;;;6.90;95871.00;;;;8344764;28;20235;-72
2022/04/09 18:02:43;;;;;;;1.90;1.80;;;;;6.80;95876.00;;;;8347115;28;20336;-71
2022/04/09 18:06:49;;;;;;;2.13;1.60;;;;;6.60;95893.00;;;;8340944;28;20216;-71
2022/04/09 18:10:53;;;;;;;1.97;1.47;;;;;6.60;95902.00;;;;8346606;28;20232;-71
2022/04/09 18:14:56;;;;;;;4.80;2.20;;;;;6.50;95914.00;;;;8343273;28;20235;-71
2022/04/09 18:19:01;;;;;;;7.00;2.07;;;;;6.50;95915.00;;;;8345788;28;20873;-73
2022/04/09 18:23:05;;;;;;;1.80;1.70;;;;;6.40;95920.00;;;;8355668;28;20397;-73
2022/04/09 18:27:09;;;;;;;4.00;2.20;;;;;6.20;95935.00;;;;8357709;28;20262;-73
2022/04/09 18:31:12;;;;;;;3.93;2.00;;;;;6.10;95941.00;;;;8355027;28;20228;-73
2022/04/09 18:35:18;;;;;;;7.07;1.87;;;;;6.10;95952.00;;;;8351070;28;20669;-73
2022/04/09 18:39:21;;;;;;;5.27;1.80;;;;;6.00;95962.00;;;;8342386;28;20228;-74
2022/04/09 18:43:24;;;;;;;5.60;1.83;;;;;6.00;95959.00;;;;8343836;28;20232;-75
2022/04/09 18:47:27;;;;;;;5.87;2.10;;;;;5.90;95971.00;;;;8353942;28;20311;-76
2022/04/09 18:51:33;;;;;;;4.90;2.30;;;;;5.90;95977.00;;;;8344119;28;20232;-76
2022/04/09 18:55:37;;;;;;;5.13;1.87;;;;;5.90;95988.00;;;;8342460;28;20230;-77
2022/04/09 18:59:40;;;;;;;4.70;2.20;;;;;5.80;95990.00;;;;8340681;28;20299;-76
2022/04/09 19:03:43;;;;;;;5.40;2.40;;;;;5.70;95988.00;;;;8342982;28;20319;-77
2022/04/09 19:07:48;;;;;;;4.50;2.93;;;;;5.70;95992.00;;;;8341420;28;20236;-76
2022/04/09 19:11:51;;;;;;;4.90;2.43;;;;;5.70;96001.00;;;;8343494;28;20323;-73
2022/04/09 19:15:54;;;;;;;4.13;2.00;;;;;5.60;95998.00;;;;8341660;28;20803;-73
2022/04/09 19:19:59;;;;;;;2.30;1.50;;;;;5.50;96014.00;;;;8342701;28;20319;-75
2022/04/09 19:24:05;;;;;;;3.73;1.70;;;;;5.30;96022.00;;;;8341372;28;20232;-76
2022/04/09 19:28:08;;;;;;;2.20;1.70;;;;;5.10;96012.00;;;;8343871;28;20311;-79
2022/04/09 19:32:11;;;;;;;7.27;2.10;;;;;5.00;96020.00;;;;8342780;28;20235;-77
2022/04/09 19:36:15;;;;;;;4.03;2.47;;;;;4.90;96032.00;;;;8342606;28;20230;-76
2022/04/09 19:40:20;;;;;;;4.67;2.60;;;;;4.90;96029.00;;;;8341989;28;20220;-77
2022/04/09 19:44:24;;;;;;;5.10;2.50;;;;;4.80;96038.00;;;;8343701;28;20660;-78
2022/04/09 19:48:27;;;;;;;7.77;2.40;;;;;4.80;96034.00;;;;8342706;28;20316;-77
2022/04/09 19:52:31;;;;;;;4.10;2.97;;;;;4.70;96030.00;;;;8342061;28;20229;-78
2022/04/09 19:56:37;;;;;;;6.77;3.00;;;;;4.70;96032.00;;;;8345861;28;20320;-75
2022/04/09 20:00:40;;;;;;;7.50;3.20;;;;;4.60;96038.00;;;;8349602;28;20239;-74
2022/04/09 20:04:44;;;;;;;5.07;2.90;;;;;4.50;96038.00;;;;8349863;28;20263;-74
2022/04/09 20:08:47;;;;;;;5.93;2.63;;;;;4.50;96041.00;;;;8346264;28;21003;-80
2022/04/09 20:12:52;;;;;;;7.73;3.00;;;;;4.30;96042.00;;;;8347811;28;20227;-74
2022/04/09 20:16:56;;;;;;;6.97;2.63;;;;;4.20;96036.00;;;;8347245;28;20228;-75
2022/04/09 20:20:59;;;;;;;6.63;2.77;;;;;4.10;96055.00;;;;8349328;28;20278;-77
2022/04/09 20:25:02;;;;;;;8.13;3.00;;;;;4.00;96058.00;;;;8347770;28;20825;-79
2022/04/09 20:29:07;;;;;;;3.80;2.70;;;;;4.00;96067.00;;;;8345916;28;20309;-79
2022/04/09 20:33:11;;;;;;;7.77;2.73;;;;;3.90;96064.00;;;;8347260;28;20310;-76
2022/04/09 20:37:14;;;;;;;3.43;2.67;;;;;3.80;96064.00;;;;8349102;28;20768;-80